Time;durP1;ratioP1;P1;durP2;ratioP2;P2;SDS_P1;SDS_P2;PMS_P1;PMS_P2;Temp;Humidity;BMP_temperature;BMP_pressure;BME280_temperature;BME280_humidity;BME280_pressure;Samples;Min_cycle;Max_cycle;Signal;HPM_P1;HPM_P2
2023/07/20 00:01:08;;;;;;;63.35;60.17;;;;;;;;;;5017847;28;20031;-65
2023/07/20 00:03:34;;;;;;;62.60;59.42;;;;;;;;;;5017274;28;20029;-71
2023/07/20 00:05:59;;;;;;;63.83;60.63;;;;;;;;;;5021421;28;20071;-72
2023/07/20 00:08:24;;;;;;;70.00;66.50;;;;;;;;;;5017203;28;20080;-72
2023/07/20 00:10:50;;;;;;;80.90;75.90;;;;;;;;;;5015910;28;20126;-67
2023/07/20 00:13:16;;;;;;;90.28;85.55;;;;;;;;;;5017235;28;20372;-70
2023/07/20 00:15:41;;;;;;;90.20;85.72;;;;;;;;;;5018582;28;20108;-71
2023/07/20 00:18:07;;;;;;;89.88;85.32;;;;;;;;;;5019709;28;20105;-67
2023/07/20 00:20:32;;;;;;;94.43;89.75;;;;;;;;;;5019874;28;20112;-67
2023/07/20 00:22:58;;;;;;;94.50;89.82;;;;;;;;;;5017774;28;20045;-70
2023/07/20 00:25:24;;;;;;;98.57;93.75;;;;;;;;;;5019910;28;20474;-70
2023/07/20 00:27:49;;;;;;;95.47;90.80;;;;;;;;;;5017556;28;20312;-67
2023/07/20 00:30:15;;;;;;;92.05;87.50;;;;;;;;;;5016711;28;20452;-69
2023/07/20 00:32:41;;;;;;;99.45;94.53;;;;;;;;;;5021279;28;20026;-69
2023/07/20 00:35:07;;;;;;;98.55;93.70;;;;;;;;;;5018359;28;20083;-67
2023/07/20 00:37:32;;;;;;;108.00;102.65;;;;;;;;;;5012443;28;20057;-67
2023/07/20 00:39:57;;;;;;;108.40;103.07;;;;;;;;;;5015876;28;20030;-67
2023/07/20 00:42:23;;;;;;;104.45;99.32;;;;;;;;;;5014930;28;20491;-67
2023/07/20 00:44:48;;;;;;;82.35;78.30;;;;;;;;;;5017970;28;20029;-67
2023/07/20 00:47:13;;;;;;;82.80;78.40;;;;;;;;;;5017452;28;20392;-67
2023/07/20 00:49:39;;;;;;;74.03;70.35;;;;;;;;;;5020377;28;20099;-71
2023/07/20 00:52:06;;;;;;;68.22;64.82;;;;;;;;;;5018079;28;20048;-68
2023/07/20 00:54:32;;;;;;;64.55;61.25;;;;;;;;;;5018466;28;20051;-69
2023/07/20 00:56:58;;;;;;;56.97;54.08;;;;;;;;;;5020129;28;20040;-69
2023/07/20 00:59:24;;;;;;;49.65;47.15;;;;;;;;;;5017279;28;20026;-69
2023/07/20 01:01:49;;;;;;;47.45;45.00;;;;;;;;;;5017231;28;20413;-66
2023/07/20 01:04:15;;;;;;;40.65;38.55;;;;;;;;;;5017098;28;20034;-66
2023/07/20 01:06:56;;;;;;;38.85;36.85;;;;;;;;;;5016788;28;20025;-66
2023/07/20 01:09:28;;;;;;;37.05;35.15;;;;;;;;;;5015155;28;20037;-69
2023/07/20 01:12:22;;;;;;;36.47;34.58;;;;;;;;;;5017943;28;20523;-65
2023/07/20 01:14:49;;;;;;;32.17;30.50;;;;;;;;;;5016201;28;20483;-66
2023/07/20 01:17:14;;;;;;;24.15;22.85;;;;;;;;;;5017580;28;20060;-69
2023/07/20 01:19:39;;;;;;;24.70;23.40;;;;;;;;;;5015335;28;20025;-68
2023/07/20 01:22:32;;;;;;;25.13;23.75;;;;;;;;;;5019378;28;20034;-68
2023/07/20 01:25:06;;;;;;;24.67;23.38;;;;;;;;;;5016262;28;20084;-69
2023/07/20 01:27:50;;;;;;;24.13;22.83;;;;;;;;;;5024737;28;20115;-69
2023/07/20 01:30:45;;;;;;;22.38;21.17;;;;;;;;;;5018508;28;20034;-66
2023/07/20 01:33:13;;;;;;;21.67;20.48;;;;;;;;;;5009866;28;20516;-65
2023/07/20 01:35:40;;;;;;;22.40;21.20;;;;;;;;;;5018992;28;20042;-65
2023/07/20 01:38:06;;;;;;;23.67;22.02;;;;;;;;;;5016784;28;20048;-69
2023/07/20 01:40:32;;;;;;;20.60;19.50;;;;;;;;;;5014600;28;20029;-70
2023/07/20 01:42:57;;;;;;;18.98;17.88;;;;;;;;;;5016005;28;20042;-70
2023/07/20 01:45:23;;;;;;;20.95;19.83;;;;;;;;;;5017951;28;20065;-70
2023/07/20 01:47:48;;;;;;;21.13;19.92;;;;;;;;;;5021029;28;20041;-69
2023/07/20 01:50:13;;;;;;;21.55;20.35;;;;;;;;;;5021205;28;20037;-69
2023/07/20 01:52:39;;;;;;;19.27;18.00;;;;;;;;;;5016341;28;20041;-69
2023/07/20 01:55:04;;;;;;;21.13;19.95;;;;;;;;;;5016224;28;20029;-69
2023/07/20 01:57:30;;;;;;;24.58;23.27;;;;;;;;;;5021097;28;20029;-69
2023/07/20 01:59:55;;;;;;;24.85;23.52;;;;;;;;;;5015640;28;20021;-65
2023/07/20 02:02:21;;;;;;;23.15;21.90;;;;;;;;;;5016087;28;20033;-66
2023/07/20 02:04:46;;;;;;;23.92;22.63;;;;;;;;;;5017037;28;20030;-65
2023/07/20 02:07:11;;;;;;;21.50;20.25;;;;;;;;;;5015477;28;20065;-69
2023/07/20 02:09:38;;;;;;;22.58;21.38;;;;;;;;;;5011733;28;20443;-66
2023/07/20 02:12:03;;;;;;;25.00;23.70;;;;;;;;;;5014048;28;20044;-66
2023/07/20 02:14:28;;;;;;;26.58;25.17;;;;;;;;;;5013133;28;20021;-69
2023/07/20 02:16:57;;;;;;;25.52;24.13;;;;;;;;;;5015260;28;20124;-69
2023/07/20 02:19:24;;;;;;;27.65;26.15;;;;;;;;;;5016964;28;20034;-65
2023/07/20 02:21:50;;;;;;;33.55;31.75;;;;;;;;;;5016979;28;20037;-69
2023/07/20 02:24:15;;;;;;;34.60;32.63;;;;;;;;;;5016992;28;20034;-69
2023/07/20 02:26:41;;;;;;;29.30;27.77;;;;;;;;;;5016188;28;20422;-68
2023/07/20 02:29:07;;;;;;;29.38;27.83;;;;;;;;;;5016241;28;20429;-69
2023/07/20 02:31:33;;;;;;;33.78;31.77;;;;;;;;;;5014693;28;20072;-69
2023/07/20 02:33:58;;;;;;;33.15;31.35;;;;;;;;;;5022391;28;20049;-69
2023/07/20 02:36:23;;;;;;;32.58;30.55;;;;;;;;;;5012725;28;20044;-70
2023/07/20 02:38:49;;;;;;;31.65;29.80;;;;;;;;;;5014554;28;20056;-70
2023/07/20 02:41:14;;;;;;;27.95;26.48;;;;;;;;;;5015352;28;20092;-71
2023/07/20 02:43:39;;;;;;;27.25;25.83;;;;;;;;;;5019798;28;20041;-71
2023/07/20 02:46:05;;;;;;;26.55;25.15;;;;;;;;;;5017850;28;20092;-66
2023/07/20 02:48:30;;;;;;;28.55;27.05;;;;;;;;;;5014156;28;20041;-66
2023/07/20 02:50:55;;;;;;;28.30;26.70;;;;;;;;;;5015830;28;20418;-65
2023/07/20 02:53:21;;;;;;;26.83;25.38;;;;;;;;;;5017066;28;20038;-70
2023/07/20 02:55:47;;;;;;;25.40;24.08;;;;;;;;;;5014853;28;20056;-65
2023/07/20 02:58:12;;;;;;;26.27;24.85;;;;;;;;;;5018099;28;20096;-70
2023/07/20 03:00:38;;;;;;;26.50;25.05;;;;;;;;;;5017683;28;20037;-70
2023/07/20 03:03:03;;;;;;;20.67;19.55;;;;;;;;;;5016618;28;20033;-70
2023/07/20 03:05:28;;;;;;;23.13;21.88;;;;;;;;;;5016225;28;20030;-70
2023/07/20 03:07:55;;;;;;;21.63;20.42;;;;;;;;;;5013269;28;20041;-66
2023/07/20 03:10:21;;;;;;;20.77;19.65;;;;;;;;;;5014994;28;20565;-66
2023/07/20 03:12:46;;;;;;;19.23;18.17;;;;;;;;;;5015676;28;20483;-65
2023/07/20 03:15:11;;;;;;;19.00;17.90;;;;;;;;;;5012395;28;20037;-65
2023/07/20 03:17:37;;;;;;;19.92;18.83;;;;;;;;;;5014622;28;20700;-65
2023/07/20 03:20:03;;;;;;;19.75;18.65;;;;;;;;;;5014700;28;20038;-65
2023/07/20 03:22:28;;;;;;;17.90;16.90;;;;;;;;;;5016798;28;20041;-68
2023/07/20 03:24:53;;;;;;;17.90;16.90;;;;;;;;;;5016218;28;20029;-68
2023/07/20 03:27:19;;;;;;;18.52;17.48;;;;;;;;;;5015707;28;20124;-68
2023/07/20 03:29:44;;;;;;;17.50;16.50;;;;;;;;;;5017135;28;20037;-68
2023/07/20 03:32:10;;;;;;;18.20;17.20;;;;;;;;;;5014899;28;20242;-65
2023/07/20 03:34:35;;;;;;;17.92;16.92;;;;;;;;;;5018000;28;20026;-65
2023/07/20 03:37:00;;;;;;;16.80;15.90;;;;;;;;;;5015119;28;20436;-65
2023/07/20 03:39:26;;;;;;;16.00;15.10;;;;;;;;;;5028671;28;20303;-68
2023/07/20 03:41:52;;;;;;;18.25;17.25;;;;;;;;;;5020080;28;20034;-68
2023/07/20 03:44:17;;;;;;;16.83;15.82;;;;;;;;;;5023183;28;20119;-65
2023/07/20 03:46:43;;;;;;;16.85;15.90;;;;;;;;;;5022381;28;20029;-65
2023/07/20 03:49:10;;;;;;;14.98;14.13;;;;;;;;;;5018387;28;20133;-69
2023/07/20 03:51:35;;;;;;;14.85;14.02;;;;;;;;;;5019554;28;20088;-69
2023/07/20 03:54:01;;;;;;;15.65;14.65;;;;;;;;;;5021060;28;20037;-69
2023/07/20 03:56:26;;;;;;;15.48;14.57;;;;;;;;;;5022051;28;20057;-67
2023/07/20 03:58:52;;;;;;;16.13;15.23;;;;;;;;;;5017736;28;20069;-71
2023/07/20 04:01:17;;;;;;;17.35;16.38;;;;;;;;;;5016853;28;20440;-67
2023/07/20 04:03:43;;;;;;;17.38;16.42;;;;;;;;;;5016693;28;20382;-70
2023/07/20 04:06:08;;;;;;;22.02;20.80;;;;;;;;;;5020157;28;20067;-70
2023/07/20 04:08:35;;;;;;;23.33;21.95;;;;;;;;;;5018382;28;20041;-70
2023/07/20 04:11:03;;;;;;;26.30;24.90;;;;;;;;;;5019746;28;20046;-69
2023/07/20 04:13:28;;;;;;;35.05;33.15;;;;;;;;;;5016679;28;20040;-68
2023/07/20 04:15:54;;;;;;;32.17;30.50;;;;;;;;;;5019740;28;20041;-69
2023/07/20 04:18:20;;;;;;;30.83;29.20;;;;;;;;;;5017490;28;20108;-71
2023/07/20 04:20:45;;;;;;;32.45;30.63;;;;;;;;;;5021089;28;20093;-66
2023/07/20 04:23:11;;;;;;;30.98;29.33;;;;;;;;;;5025800;28;20108;-66
2023/07/20 04:25:39;;;;;;;37.88;35.85;;;;;;;;;;5017745;28;20091;-66
2023/07/20 04:28:11;;;;;;;37.78;35.83;;;;;;;;;;5020376;28;20303;-70
2023/07/20 04:30:38;;;;;;;38.67;36.63;;;;;;;;;;5019822;28;20033;-70
2023/07/20 04:33:03;;;;;;;43.90;41.65;;;;;;;;;;5019217;28;20041;-71
2023/07/20 04:35:49;;;;;;;33.15;31.25;;;;;;;;;;5020913;28;20026;-65
2023/07/20 04:38:17;;;;;;;46.95;44.53;;;;;;;;;;5017391;28;20052;-65
2023/07/20 04:40:47;;;;;;;36.40;34.53;;;;;;;;;;5017291;28;20036;-68
2023/07/20 04:43:13;;;;;;;45.25;42.92;;;;;;;;;;5023762;28;20032;-65
2023/07/20 04:45:38;;;;;;;35.15;33.22;;;;;;;;;;5018432;28;20065;-66
2023/07/20 04:48:08;;;;;;;34.92;33.10;;;;;;;;;;5017819;28;20463;-74
2023/07/20 04:50:34;;;;;;;33.38;31.55;;;;;;;;;;5015188;28;20506;-65
2023/07/20 04:53:00;;;;;;;28.60;27.05;;;;;;;;;;5019971;28;20026;-73
2023/07/20 04:55:25;;;;;;;33.33;31.58;;;;;;;;;;5017040;28;20125;-74
2023/07/20 04:57:51;;;;;;;33.72;31.98;;;;;;;;;;5020097;28;20120;-66
2023/07/20 05:00:17;;;;;;;36.33;34.38;;;;;;;;;;5016977;28;20036;-73
2023/07/20 05:02:42;;;;;;;32.90;31.17;;;;;;;;;;5016977;28;20048;-72
2023/07/20 05:05:08;;;;;;;34.60;32.80;;;;;;;;;;5018196;28;20049;-71
2023/07/20 05:07:34;;;;;;;36.38;34.45;;;;;;;;;;5018803;28;20181;-66
2023/07/20 05:10:00;;;;;;;38.33;36.25;;;;;;;;;;5025207;28;20465;-66
2023/07/20 05:12:25;;;;;;;27.75;26.30;;;;;;;;;;5016212;28;20052;-74
2023/07/20 05:14:51;;;;;;;31.55;29.85;;;;;;;;;;5016631;28;20040;-74
2023/07/20 05:17:16;;;;;;;36.78;34.85;;;;;;;;;;5019137;28;20124;-66
2023/07/20 05:19:41;;;;;;;36.95;35.05;;;;;;;;;;5018232;28;20091;-66
2023/07/20 05:22:07;;;;;;;33.75;32.00;;;;;;;;;;5012461;28;20148;-65
2023/07/20 05:24:32;;;;;;;30.17;28.60;;;;;;;;;;5019927;28;20049;-73
2023/07/20 05:26:58;;;;;;;23.15;21.92;;;;;;;;;;5016133;28;20044;-73
2023/07/20 05:29:25;;;;;;;21.58;20.38;;;;;;;;;;5016934;28;20204;-73
2023/07/20 05:31:50;;;;;;;24.70;23.38;;;;;;;;;;5015543;28;20037;-66
2023/07/20 05:34:15;;;;;;;20.48;19.38;;;;;;;;;;5015043;28;20041;-74
2023/07/20 05:36:41;;;;;;;20.30;19.20;;;;;;;;;;5015215;28;20038;-66
2023/07/20 05:39:06;;;;;;;19.83;18.73;;;;;;;;;;5018125;28;20128;-73
2023/07/20 05:41:32;;;;;;;18.55;17.55;;;;;;;;;;5025125;28;20038;-74
2023/07/20 06:10:16;;;;;;;24.55;23.17;;;;;;;;;;5082462;27;20471;-66
2023/07/20 06:13:02;;;;;;;22.65;21.42;;;;;;;;;;5084577;28;20051;-63
2023/07/20 06:15:50;;;;;;;21.77;20.60;;;;;;;;;;5079581;28;20054;-67
2023/07/20 06:18:36;;;;;;;22.30;21.05;;;;;;;;;;5081168;28;20044;-68
2023/07/20 06:21:22;;;;;;;16.58;15.60;;;;;;;;;;5079833;28;20040;-68
2023/07/20 06:24:08;;;;;;;22.63;21.40;;;;;;;;;;5085383;28;20044;-67
2023/07/20 06:26:54;;;;;;;29.13;27.23;;;;;;;;;;5076088;28;20387;-67
2023/07/20 06:29:39;;;;;;;27.55;26.10;;;;;;;;;;5082292;28;20094;-67
2023/07/20 06:32:25;;;;;;;46.13;43.78;;;;;;;;;;5077494;28;20101;-67
2023/07/20 06:35:11;;;;;;;45.35;43.08;;;;;;;;;;5080283;28;20032;-67
2023/07/20 06:37:57;;;;;;;47.88;45.42;;;;;;;;;;5081720;28;20044;-67
2023/07/20 06:40:43;;;;;;;55.05;52.17;;;;;;;;;;5077650;28;20040;-65
2023/07/20 06:43:28;;;;;;;50.53;47.97;;;;;;;;;;5084819;28;20036;-64
2023/07/20 06:46:17;;;;;;;45.45;43.15;;;;;;;;;;5081454;28;20092;-65
2023/07/20 06:49:05;;;;;;;53.83;51.13;;;;;;;;;;5079629;28;20452;-70
2023/07/20 06:51:51;;;;;;;50.20;47.65;;;;;;;;;;5076434;28;20594;-69
2023/07/20 06:54:37;;;;;;;44.95;42.65;;;;;;;;;;5078529;28;20468;-68
2023/07/20 06:57:22;;;;;;;36.47;34.60;;;;;;;;;;5082046;28;20478;-69
2023/07/20 07:00:08;;;;;;;41.42;39.33;;;;;;;;;;5080736;28;20036;-70
2023/07/20 07:02:54;;;;;;;33.78;32.00;;;;;;;;;;5080738;28;20122;-69
2023/07/20 07:05:40;;;;;;;40.30;38.17;;;;;;;;;;5080848;28;20040;-69
2023/07/20 07:08:26;;;;;;;44.90;42.60;;;;;;;;;;5081077;28;20044;-69
2023/07/20 07:11:11;;;;;;;53.42;50.60;;;;;;;;;;5066620;28;20064;-64
2023/07/20 07:13:57;;;;;;;51.67;49.10;;;;;;;;;;5065720;28;20029;-65
2023/07/20 07:16:43;;;;;;;44.90;42.60;;;;;;;;;;5066318;28;20052;-65
2023/07/20 07:19:28;;;;;;;47.45;45.05;;;;;;;;;;5065334;28;20420;-67
2023/07/20 07:22:14;;;;;;;35.88;34.00;;;;;;;;;;5066381;28;20380;-66
2023/07/20 07:25:00;;;;;;;34.00;32.25;;;;;;;;;;5066683;28;20036;-69
2023/07/20 07:27:45;;;;;;;129.68;123.35;;;;;;;;;;5060201;28;20040;-69
2023/07/20 07:30:31;;;;;;;153.73;146.25;;;;;;;;;;5068060;28;20056;-69
2023/07/20 07:33:17;;;;;;;173.65;165.25;;;;;;;;;;5066841;28;20055;-67
2023/07/20 07:36:02;;;;;;;184.13;175.25;;;;;;;;;;5067998;28;20475;-67
2023/07/20 07:38:48;;;;;;;208.27;198.23;;;;;;;;;;5066877;28;20055;-70
2023/07/20 07:41:34;;;;;;;177.68;169.10;;;;;;;;;;5064170;28;20037;-67
2023/07/20 07:44:21;;;;;;;209.50;199.48;;;;;;;;;;5066316;28;20040;-68
2023/07/20 07:47:07;;;;;;;209.38;199.30;;;;;;;;;;5069840;28;20542;-70
2023/07/20 07:49:52;;;;;;;157.90;150.20;;;;;;;;;;5068357;28;20377;-70
2023/07/20 07:52:38;;;;;;;180.05;171.38;;;;;;;;;;5051637;28;20051;-70
2023/07/20 07:55:26;;;;;;;159.18;151.43;;;;;;;;;;5070475;28;20459;-70
2023/07/20 07:58:12;;;;;;;169.65;161.38;;;;;;;;;;5068217;28;20078;-69
2023/07/20 08:00:57;;;;;;;208.88;198.88;;;;;;;;;;5065792;28;20051;-67
2023/07/20 08:03:43;;;;;;;129.77;123.22;;;;;;;;;;5064711;28;20097;-68
2023/07/20 08:06:28;;;;;;;110.43;105.00;;;;;;;;;;5067851;28;20059;-69
2023/07/20 08:09:14;;;;;;;64.85;61.60;;;;;;;;;;5065159;28;20028;-69
2023/07/20 08:12:00;;;;;;;71.45;67.72;;;;;;;;;;5066101;28;20136;-68
2023/07/20 08:14:46;;;;;;;63.20;60.05;;;;;;;;;;5041852;28;20096;-69
2023/07/20 08:17:31;;;;;;;71.45;67.90;;;;;;;;;;5035929;28;20482;-68
2023/07/20 08:20:17;;;;;;;82.65;78.53;;;;;;;;;;5041299;28;20427;-67
2023/07/20 08:23:03;;;;;;;79.10;75.13;;;;;;;;;;5041523;28;20048;-68
2023/07/20 08:25:49;;;;;;;84.93;80.72;;;;;;;;;;5045379;28;20041;-66
2023/07/20 08:28:35;;;;;;;72.53;68.90;;;;;;;;;;5042376;28;20485;-65
2023/07/20 08:31:21;;;;;;;77.45;73.63;;;;;;;;;;5039948;28;20052;-66
2023/07/20 08:34:06;;;;;;;100.40;95.47;;;;;;;;;;5041985;28;20346;-66
2023/07/20 08:36:52;;;;;;;88.55;84.20;;;;;;;;;;5037623;28;20128;-66
2023/07/20 08:39:38;;;;;;;95.20;90.47;;;;;;;;;;5039540;28;20069;-66
2023/07/20 08:42:24;;;;;;;90.53;86.05;;;;;;;;;;5043133;28;20044;-68
2023/07/20 08:45:13;;;;;;;124.32;118.25;;;;;;;;;;5037626;28;20044;-68
2023/07/20 08:48:00;;;;;;;131.10;124.68;;;;;;;;;;5032354;28;20037;-65
2023/07/20 08:50:49;;;;;;;128.85;122.53;;;;;;;;;;5043816;28;20052;-65
2023/07/20 08:53:35;;;;;;;130.68;124.20;;;;;;;;;;5044186;28;20424;-68
2023/07/20 08:56:22;;;;;;;126.80;120.57;;;;;;;;;;5054431;28;20037;-65
2023/07/20 08:59:08;;;;;;;120.88;114.93;;;;;;;;;;5055407;28;20563;-65
2023/07/20 09:01:55;;;;;;;100.70;95.47;;;;;;;;;;5050036;28;20080;-68
2023/07/20 09:04:43;;;;;;;93.40;88.82;;;;;;;;;;5063503;28;20040;-67
2023/07/20 09:07:28;;;;;;;82.03;77.85;;;;;;;;;;5066194;28;20563;-67
2023/07/20 09:10:14;;;;;;;84.38;80.20;;;;;;;;;;5065454;28;20060;-64
2023/07/20 09:13:00;;;;;;;80.13;76.10;;;;;;;;;;5063216;28;20346;-67
2023/07/20 09:15:54;;;;;;;122.82;116.78;;;;;;;;;;5063729;28;20151;-64
2023/07/20 09:18:39;;;;;;;99.20;94.30;;;;;;;;;;5047646;28;20032;-64
2023/07/20 09:21:30;;;;;;;116.32;110.60;;;;;;;;;;5067228;28;20601;-68
2023/07/20 09:24:18;;;;;;;109.65;104.25;;;;;;;;;;5066834;28;20044;-67
2023/07/20 09:27:04;;;;;;;119.55;113.68;;;;;;;;;;5066667;28;20040;-65
2023/07/20 09:29:51;;;;;;;119.60;113.75;;;;;;;;;;5064721;28;20100;-65
2023/07/20 09:32:44;;;;;;;123.05;117.00;;;;;;;;;;5060294;28;20450;-69
2023/07/20 09:35:30;;;;;;;109.95;104.53;;;;;;;;;;5065798;28;20524;-65
2023/07/20 09:38:16;;;;;;;90.32;85.88;;;;;;;;;;5063220;28;20143;-66
2023/07/20 09:41:01;;;;;;;40.65;38.60;;;;;;;;;;5063055;28;20041;-69
2023/07/20 09:43:47;;;;;;;34.30;32.53;;;;;;;;;;5065196;28;20344;-69
2023/07/20 09:46:45;;;;;;;41.67;39.58;;;;;;;;;;5064235;28;20119;-66
2023/07/20 09:49:30;;;;;;;41.80;39.65;;;;;;;;;;5062235;28;20031;-66
2023/07/20 09:52:16;;;;;;;59.92;56.92;;;;;;;;;;5062763;28;20107;-68
2023/07/20 09:55:03;;;;;;;68.75;65.32;;;;;;;;;;5063893;28;20110;-72
2023/07/20 09:57:49;;;;;;;39.72;37.70;;;;;;;;;;5066017;28;20493;-73
2023/07/20 10:00:37;;;;;;;64.72;61.50;;;;;;;;;;5057007;28;20158;-68
2023/07/20 10:03:29;;;;;;;45.17;42.88;;;;;;;;;;5063233;28;20054;-68
2023/07/20 10:06:20;;;;;;;51.20;48.60;;;;;;;;;;5060487;28;20124;-68
2023/07/20 10:09:07;;;;;;;113.78;108.20;;;;;;;;;;5064091;28;20441;-74
2023/07/20 10:11:53;;;;;;;60.28;57.15;;;;;;;;;;5064404;28;20079;-68
2023/07/20 10:14:42;;;;;;;74.63;70.95;;;;;;;;;;5063562;28;20040;-69
2023/07/20 10:17:28;;;;;;;61.63;58.53;;;;;;;;;;5048693;28;20051;-69
2023/07/20 10:20:13;;;;;;;50.42;47.85;;;;;;;;;;5066879;28;20075;-73
2023/07/20 10:23:00;;;;;;;90.65;86.18;;;;;;;;;;5059507;28;20237;-69
2023/07/20 10:25:47;;;;;;;43.55;41.33;;;;;;;;;;5063785;28;20063;-69
2023/07/20 10:28:33;;;;;;;50.85;48.30;;;;;;;;;;5058009;28;20033;-69
2023/07/20 10:31:19;;;;;;;29.98;28.38;;;;;;;;;;5052658;28;20074;-73
2023/07/20 10:34:05;;;;;;;27.38;25.88;;;;;;;;;;5062419;28;20102;-70
2023/07/20 10:36:52;;;;;;;30.25;28.65;;;;;;;;;;5058246;28;20067;-72
2023/07/20 10:39:39;;;;;;;23.42;22.13;;;;;;;;;;5065412;28;20036;-69
2023/07/20 10:42:33;;;;;;;25.63;24.23;;;;;;;;;;5064600;28;20085;-72
2023/07/20 10:45:18;;;;;;;30.52;28.92;;;;;;;;;;5064698;28;20488;-70
2023/07/20 10:48:42;;;;;;;29.55;28.02;;;;;;;;;;5062468;28;20342;-70
2023/07/20 10:51:28;;;;;;;35.05;33.15;;;;;;;;;;5066163;28;20044;-70
2023/07/20 10:54:17;;;;;;;94.97;90.03;;;;;;;;;;5071265;28;20044;-72
2023/07/20 10:57:30;;;;;;;132.20;125.70;;;;;;;;;;5067381;28;20093;-72
2023/07/20 11:00:19;;;;;;;121.00;115.10;;;;;;;;;;5065359;28;20037;-72
2023/07/20 11:06:55;;;;;;;146.02;138.70;;;;;;;;;;5062657;28;20046;-72
2023/07/20 11:09:42;;;;;;;60.97;57.83;;;;;;;;;;5066162;28;20032;-73
2023/07/20 11:12:28;;;;;;;44.00;41.78;;;;;;;;;;5067759;28;20377;-73
2023/07/20 11:15:13;;;;;;;82.03;77.95;;;;;;;;;;5053480;28;20037;-69
2023/07/20 11:18:14;;;;;;;33.88;32.03;;;;;;;;;;5065910;28;20044;-69
2023/07/20 11:21:00;;;;;;;28.58;27.08;;;;;;;;;;5064917;28;20044;-69
2023/07/20 11:23:48;;;;;;;33.58;31.88;;;;;;;;;;5061280;28;20165;-72
2023/07/20 11:26:44;;;;;;;29.50;27.95;;;;;;;;;;5068288;28;20475;-70
2023/07/20 11:29:30;;;;;;;26.45;25.05;;;;;;;;;;5071261;28;20033;-70
2023/07/20 11:32:23;;;;;;;25.60;24.25;;;;;;;;;;5070702;28;20036;-70
2023/07/20 11:35:12;;;;;;;28.20;26.70;;;;;;;;;;5050689;28;20106;-70
2023/07/20 11:37:58;;;;;;;23.48;22.25;;;;;;;;;;5067191;28;20102;-71
2023/07/20 11:40:44;;;;;;;22.95;21.70;;;;;;;;;;5063090;28;20105;-70
2023/07/20 11:43:30;;;;;;;22.45;21.25;;;;;;;;;;5061418;28;20040;-71
2023/07/20 11:46:16;;;;;;;28.20;26.70;;;;;;;;;;5062381;28;20039;-72
2023/07/20 11:49:02;;;;;;;28.08;26.58;;;;;;;;;;5064908;28;20043;-75
2023/07/20 11:51:49;;;;;;;23.58;22.33;;;;;;;;;;5059222;28;20132;-74
2023/07/20 11:54:37;;;;;;;28.55;27.05;;;;;;;;;;5051650;28;20117;-72
2023/07/20 11:57:23;;;;;;;58.30;55.40;;;;;;;;;;5066185;28;20040;-69
2023/07/20 12:00:11;;;;;;;62.17;59.05;;;;;;;;;;5066595;28;20423;-72
2023/07/20 12:02:57;;;;;;;28.77;27.20;;;;;;;;;;5066226;28;20349;-69
2023/07/20 12:05:43;;;;;;;65.55;62.28;;;;;;;;;;5049715;28;20109;-71
2023/07/20 12:08:28;;;;;;;57.17;54.33;;;;;;;;;;5061615;28;20036;-71
2023/07/20 12:11:30;;;;;;;109.65;104.20;;;;;;;;;;5067504;28;20091;-69
2023/07/20 12:14:17;;;;;;;106.10;100.85;;;;;;;;;;5068174;28;20291;-69
2023/07/20 12:17:02;;;;;;;94.63;89.90;;;;;;;;;;5066294;28;20068;-69
2023/07/20 12:19:48;;;;;;;102.60;97.53;;;;;;;;;;5066383;28;20772;-69
2023/07/20 12:22:39;;;;;;;92.55;87.97;;;;;;;;;;5054383;28;20106;-69
2023/07/20 12:25:33;;;;;;;122.10;116.10;;;;;;;;;;5065737;28;20040;-71
2023/07/20 12:28:19;;;;;;;72.38;68.78;;;;;;;;;;5067969;28;20040;-70
2023/07/20 12:31:06;;;;;;;105.10;99.95;;;;;;;;;;5064448;28;20658;-69
2023/07/20 12:33:53;;;;;;;131.65;125.10;;;;;;;;;;5061185;28;20597;-72
2023/07/20 12:36:38;;;;;;;135.65;128.98;;;;;;;;;;5047829;28;20041;-72
2023/07/20 12:39:24;;;;;;;114.18;108.57;;;;;;;;;;5065651;28;20044;-69
2023/07/20 12:42:10;;;;;;;96.40;91.63;;;;;;;;;;5063549;28;20415;-69
2023/07/20 12:44:55;;;;;;;89.85;85.40;;;;;;;;;;5066233;28;20059;-68
2023/07/20 12:47:43;;;;;;;76.05;72.25;;;;;;;;;;5063815;28;20244;-71
2023/07/20 12:50:29;;;;;;;52.58;47.28;;;;;;;;;;5062104;28;20123;-72
2023/07/20 12:53:16;;;;;;;85.60;81.35;;;;;;;;;;5062596;28;20040;-69
2023/07/20 12:56:02;;;;;;;23.40;22.15;;;;;;;;;;5062665;28;20404;-68
2023/07/20 12:58:49;;;;;;;28.42;26.92;;;;;;;;;;5066457;28;20044;-67
2023/07/20 13:01:35;;;;;;;75.30;71.55;;;;;;;;;;5069456;28;20052;-67
2023/07/20 13:04:21;;;;;;;31.48;29.80;;;;;;;;;;5060629;28;20345;-67
2023/07/20 13:07:10;;;;;;;60.10;56.03;;;;;;;;;;5060302;28;20479;-68
2023/07/20 13:09:56;;;;;;;26.10;24.70;;;;;;;;;;5063159;28;20043;-67
2023/07/20 13:12:42;;;;;;;26.08;24.67;;;;;;;;;;5069977;28;20271;-67
2023/07/20 13:15:32;;;;;;;35.72;33.88;;;;;;;;;;5061826;28;20037;-70
2023/07/20 13:18:18;;;;;;;75.75;71.93;;;;;;;;;;5050845;28;20040;-70
2023/07/20 13:21:10;;;;;;;49.50;46.92;;;;;;;;;;5065427;28;20123;-70
2023/07/20 13:23:55;;;;;;;27.52;26.08;;;;;;;;;;5067887;28;20036;-68
2023/07/20 13:26:41;;;;;;;76.68;72.88;;;;;;;;;;5066017;28;20028;-70
2023/07/20 13:29:27;;;;;;;28.38;26.83;;;;;;;;;;5061270;28;20032;-71
2023/07/20 13:32:17;;;;;;;80.07;76.10;;;;;;;;;;5062714;28;20033;-71
2023/07/20 13:35:03;;;;;;;70.38;66.88;;;;;;;;;;5063380;28;20048;-71
2023/07/20 13:37:49;;;;;;;65.55;62.30;;;;;;;;;;5062890;28;20057;-70
2023/07/20 13:40:36;;;;;;;99.32;94.43;;;;;;;;;;5048355;28;20052;-68
2023/07/20 13:43:22;;;;;;;80.82;76.70;;;;;;;;;;5061203;28;20064;-72
2023/07/20 13:46:08;;;;;;;76.03;72.20;;;;;;;;;;5066298;28;20074;-70
2023/07/20 13:48:53;;;;;;;36.60;34.70;;;;;;;;;;5060378;28;20098;-73
2023/07/20 13:51:40;;;;;;;39.20;37.15;;;;;;;;;;5062853;28;20040;-70
2023/07/20 13:54:26;;;;;;;26.80;25.40;;;;;;;;;;5033286;28;20090;-69
2023/07/20 13:57:11;;;;;;;38.95;36.92;;;;;;;;;;5047943;28;20718;-70
2023/07/20 13:59:58;;;;;;;31.65;30.02;;;;;;;;;;5058732;28;20078;-70
2023/07/20 14:02:44;;;;;;;87.40;83.07;;;;;;;;;;5061331;28;20127;-68
2023/07/20 14:05:29;;;;;;;70.55;67.03;;;;;;;;;;5045746;28;20101;-69
2023/07/20 14:08:15;;;;;;;81.43;77.35;;;;;;;;;;5066246;28;20044;-70
2023/07/20 14:11:01;;;;;;;98.95;93.97;;;;;;;;;;5064951;28;20044;-72
2023/07/20 14:13:47;;;;;;;33.88;32.08;;;;;;;;;;5063490;28;20075;-71
2023/07/20 14:16:32;;;;;;;23.65;22.35;;;;;;;;;;5051982;28;20368;-72
2023/07/20 14:19:18;;;;;;;36.20;34.33;;;;;;;;;;5061420;28;20371;-72
2023/07/20 14:22:04;;;;;;;21.52;20.33;;;;;;;;;;5069860;28;20072;-72
2023/07/20 14:24:50;;;;;;;21.92;20.73;;;;;;;;;;5066149;28;20119;-72
2023/07/20 14:27:35;;;;;;;22.23;21.02;;;;;;;;;;5063146;28;20500;-70
2023/07/20 14:30:21;;;;;;;24.80;23.50;;;;;;;;;;5064554;28;20025;-68
2023/07/20 14:33:07;;;;;;;27.65;26.15;;;;;;;;;;5067007;28;20119;-68
2023/07/20 14:35:52;;;;;;;24.83;23.52;;;;;;;;;;5063878;28;20060;-73
2023/07/20 14:38:40;;;;;;;36.58;34.67;;;;;;;;;;5066717;28;20495;-73
2023/07/20 14:41:26;;;;;;;31.42;29.83;;;;;;;;;;5063298;28;20464;-72
2023/07/20 14:44:11;;;;;;;49.72;47.22;;;;;;;;;;5057291;28;20452;-70
2023/07/20 14:46:57;;;;;;;61.63;58.55;;;;;;;;;;5066589;28;20101;-69
2023/07/20 14:49:43;;;;;;;58.88;55.88;;;;;;;;;;5064918;28;20050;-72
2023/07/20 14:52:29;;;;;;;70.75;67.25;;;;;;;;;;5067705;28;20166;-70
2023/07/20 14:55:15;;;;;;;81.88;77.82;;;;;;;;;;5066635;28;20110;-72
2023/07/20 14:58:01;;;;;;;68.97;65.53;;;;;;;;;;5065464;28;20114;-71
2023/07/20 15:00:46;;;;;;;61.00;57.95;;;;;;;;;;5066320;28;20048;-72
2023/07/20 15:03:32;;;;;;;71.07;67.53;;;;;;;;;;5068240;28;20028;-73
2023/07/20 15:06:18;;;;;;;47.78;45.35;;;;;;;;;;5064583;28;20036;-71
2023/07/20 15:09:03;;;;;;;54.83;51.90;;;;;;;;;;5070130;28;20063;-70
2023/07/20 15:11:49;;;;;;;58.83;55.88;;;;;;;;;;5070479;28;20058;-72
2023/07/20 15:14:35;;;;;;;68.50;65.10;;;;;;;;;;5062902;28;20120;-70
2023/07/20 15:17:20;;;;;;;62.70;59.58;;;;;;;;;;5068761;28;20033;-72
2023/07/20 15:20:08;;;;;;;48.45;45.85;;;;;;;;;;5066972;28;20033;-73
2023/07/20 15:22:54;;;;;;;58.70;55.78;;;;;;;;;;5068740;28;20059;-69
2023/07/20 15:25:40;;;;;;;84.25;80.10;;;;;;;;;;5064510;28;20036;-69
2023/07/20 15:28:25;;;;;;;70.78;67.28;;;;;;;;;;5067116;28;20135;-72
2023/07/20 15:31:11;;;;;;;94.75;90.13;;;;;;;;;;5065657;28;20043;-71
2023/07/20 15:33:57;;;;;;;83.75;79.60;;;;;;;;;;5069327;28;20048;-72
2023/07/20 15:36:42;;;;;;;78.22;74.35;;;;;;;;;;5066348;28;20052;-69
2023/07/20 15:39:28;;;;;;;76.50;72.72;;;;;;;;;;5063861;28;20052;-72
2023/07/20 15:42:14;;;;;;;89.60;85.18;;;;;;;;;;5063981;28;20036;-72
2023/07/20 15:45:00;;;;;;;90.95;86.30;;;;;;;;;;5067978;28;20822;-70
2023/07/20 15:47:45;;;;;;;70.57;67.07;;;;;;;;;;5062984;28;20072;-69
2023/07/20 15:50:31;;;;;;;72.43;68.82;;;;;;;;;;5053802;28;20071;-72